Time;durP1;ratioP1;P1;durP2;ratioP2;P2;SDS_P1;SDS_P2;PMS_P1;PMS_P2;Temp;Humidity;BMP_temperature;BMP_pressure;BME280_temperature;BME280_humidity;BME280_pressure;Samples;Min_cycle;Max_cycle;Signal;HPM_P1;HPM_P2
2023/06/26 00:02:23;;;;;;;;;;;27.70;54.40;;;;;;5071952;28;20365;-53
2023/06/26 00:04:53;;;;;;;;;;;27.70;54.20;;;;;;5061445;28;20253;-54
2023/06/26 00:07:22;;;;;;;;;;;27.50;54.50;;;;;;5067341;28;19913;-54
2023/06/26 00:09:47;;;;;;;;;;;27.40;54.80;;;;;;5073845;28;20368;-53
2023/06/26 00:12:12;;;;;;;;;;;27.40;54.70;;;;;;5075666;28;19920;-54
2023/06/26 00:14:38;;;;;;;;;;;27.40;54.80;;;;;;5076132;28;19919;-56
2023/06/26 00:17:03;;;;;;;;;;;27.30;54.90;;;;;;5067346;28;19974;-53
2023/06/26 00:19:29;;;;;;;;;;;27.20;55.20;;;;;;5069540;28;19919;-53
2023/06/26 00:21:54;;;;;;;;;;;27.20;55.30;;;;;;5075090;28;20354;-53
2023/06/26 00:24:20;;;;;;;;;;;27.20;55.30;;;;;;5075442;28;19916;-53
2023/06/26 00:26:46;;;;;;;;;;;27.20;55.20;;;;;;5075730;28;20041;-53
2023/06/26 00:29:11;;;;;;;;;;;27.30;55.00;;;;;;5075757;28;19919;-54
2023/06/26 00:31:37;;;;;;;;;;;27.30;55.10;;;;;;5068277;28;19995;-54
2023/06/26 00:34:03;;;;;;;;;;;27.30;55.10;;;;;;5073713;28;20074;-54
2023/06/26 00:36:28;;;;;;;;;;;27.30;55.00;;;;;;5073848;28;19958;-53
2023/06/26 00:38:54;;;;;;;;;;;27.40;55.00;;;;;;5075086;28;19915;-54
2023/06/26 00:41:19;;;;;;;;;;;27.30;55.00;;;;;;5074965;28;19931;-54
2023/06/26 00:43:45;;;;;;;;;;;27.30;55.20;;;;;;5072999;28;19962;-54
2023/06/26 00:46:12;;;;;;;;;;;27.30;55.10;;;;;;5089155;28;20141;-53
2023/06/26 00:48:37;;;;;;;;;;;27.30;55.10;;;;;;5075223;28;19951;-53
2023/06/26 00:51:03;;;;;;;;;;;27.30;54.90;;;;;;5071543;28;19956;-53
2023/06/26 00:53:28;;;;;;;;;;;27.40;55.00;;;;;;5074633;28;19963;-53
2023/06/26 00:55:54;;;;;;;;;;;27.40;54.60;;;;;;5073754;28;19965;-53
2023/06/26 00:58:21;;;;;;;;;;;27.40;54.80;;;;;;5074388;28;19961;-53
2023/06/26 01:00:47;;;;;;;;;;;27.40;54.90;;;;;;5097312;28;19920;-54
2023/06/26 01:03:12;;;;;;;;;;;27.30;55.30;;;;;;5075206;28;19912;-53
2023/06/26 01:05:38;;;;;;;;;;;27.30;55.20;;;;;;5074770;28;19924;-53
2023/06/26 01:08:03;;;;;;;;;;;27.30;55.20;;;;;;5072227;28;20375;-53
2023/06/26 01:10:29;;;;;;;;;;;27.20;55.30;;;;;;5073261;28;19912;-54
2023/06/26 01:12:54;;;;;;;;;;;27.30;55.30;;;;;;5062246;28;19970;-53
2023/06/26 01:15:20;;;;;;;;;;;27.30;55.00;;;;;;5053701;28;20262;-53
2023/06/26 01:17:47;;;;;;;;;;;27.30;55.00;;;;;;5064100;28;19916;-53
2023/06/26 01:20:12;;;;;;;;;;;27.30;55.00;;;;;;5074648;28;20082;-54
2023/06/26 01:22:44;;;;;;;;;;;27.30;55.20;;;;;;5099999;28;20408;-54
2023/06/26 01:25:28;;;;;;;;;;;27.20;55.30;;;;;;5102955;28;20065;-53
2023/06/26 01:27:54;;;;;;;;;;;27.20;55.20;;;;;;5069128;28;19952;-53
2023/06/26 01:30:19;;;;;;;;;;;27.20;55.30;;;;;;5071926;28;20009;-54
2023/06/26 01:32:45;;;;;;;;;;;27.30;55.30;;;;;;5074270;28;20003;-53
2023/06/26 01:35:10;;;;;;;;;;;27.20;55.20;;;;;;5074007;28;19962;-53
2023/06/26 01:37:36;;;;;;;;;;;27.20;55.30;;;;;;5071821;28;19916;-54
2023/06/26 01:40:01;;;;;;;;;;;27.20;55.40;;;;;;5072245;28;19951;-54
2023/06/26 01:42:27;;;;;;;;;;;27.20;55.50;;;;;;5074018;28;19953;-53
2023/06/26 01:44:53;;;;;;;;;;;27.20;55.30;;;;;;5067066;28;20062;-53
2023/06/26 01:47:20;;;;;;;;;;;27.20;55.30;;;;;;5066993;28;20015;-53
2023/06/26 01:49:49;;;;;;;;;;;27.20;55.30;;;;;;5071187;28;21268;-54
2023/06/26 01:52:35;;;;;;;;;;;27.20;55.30;;;;;;5071837;28;19913;-54
2023/06/26 01:55:21;;;;;;;;;;;27.20;55.30;;;;;;5074045;28;19995;-53
2023/06/26 01:57:47;;;;;;;;;;;27.20;55.30;;;;;;5090336;28;20017;-53
2023/06/26 02:00:13;;;;;;;;;;;27.30;55.00;;;;;;5104472;28;19951;-54
2023/06/26 02:02:40;;;;;;;;;;;27.20;55.20;;;;;;5097432;28;19924;-54
2023/06/26 02:05:05;;;;;;;;;;;27.20;55.10;;;;;;5053669;28;19917;-54
2023/06/26 02:07:31;;;;;;;;;;;27.20;55.20;;;;;;5070230;28;19991;-52
2023/06/26 02:09:56;;;;;;;;;;;27.10;55.40;;;;;;5067702;28;20109;-53
2023/06/26 02:12:22;;;;;;;;;;;27.10;55.20;;;;;;5058257;28;19966;-54
2023/06/26 02:14:47;;;;;;;;;;;27.10;55.40;;;;;;5071633;28;19917;-53
2023/06/26 02:17:13;;;;;;;;;;;27.10;55.20;;;;;;5072946;28;19934;-53
2023/06/26 02:19:47;;;;;;;;;;;27.10;55.40;;;;;;5073157;28;19977;-53
2023/06/26 02:22:15;;;;;;;;;;;27.10;55.50;;;;;;5079995;28;19908;-53
2023/06/26 02:24:41;;;;;;;;;;;27.00;55.50;;;;;;5072437;28;20349;-53
2023/06/26 02:27:06;;;;;;;;;;;27.10;55.40;;;;;;5073440;28;19954;-54
2023/06/26 02:29:32;;;;;;;;;;;26.90;55.60;;;;;;5067128;28;19924;-53
2023/06/26 02:31:57;;;;;;;;;;;26.80;55.80;;;;;;5069035;28;19913;-53
2023/06/26 02:34:23;;;;;;;;;;;26.90;55.80;;;;;;5072925;28;19955;-54
2023/06/26 02:36:48;;;;;;;;;;;26.90;55.80;;;;;;5072605;28;19927;-54
2023/06/26 02:39:14;;;;;;;;;;;26.90;55.70;;;;;;5072652;28;19919;-54
2023/06/26 02:41:39;;;;;;;;;;;26.90;55.80;;;;;;5072963;28;19912;-53
2023/06/26 02:44:06;;;;;;;;;;;26.80;55.90;;;;;;5072370;28;19913;-54
2023/06/26 02:46:31;;;;;;;;;;;26.60;56.10;;;;;;5072672;28;20377;-53
2023/06/26 02:48:57;;;;;;;;;;;26.70;56.00;;;;;;5091802;28;19920;-53
2023/06/26 02:51:22;;;;;;;;;;;26.70;55.90;;;;;;5072227;28;19912;-53
2023/06/26 02:53:47;;;;;;;;;;;26.70;56.10;;;;;;5055732;28;19919;-53
2023/06/26 02:56:13;;;;;;;;;;;26.60;56.10;;;;;;5052888;28;20361;-53
2023/06/26 02:58:38;;;;;;;;;;;26.50;56.30;;;;;;5057148;28;20362;-53
2023/06/26 03:01:04;;;;;;;;;;;26.50;56.30;;;;;;5062195;28;19999;-53
2023/06/26 03:03:29;;;;;;;;;;;26.40;56.50;;;;;;5067884;28;19920;-53
2023/06/26 03:05:55;;;;;;;;;;;26.30;56.60;;;;;;5060939;28;19916;-53
2023/06/26 03:08:20;;;;;;;;;;;26.40;56.70;;;;;;5071547;28;19912;-53
2023/06/26 03:10:45;;;;;;;;;;;26.40;56.60;;;;;;5071029;28;19912;-54
2023/06/26 03:13:11;;;;;;;;;;;26.50;56.40;;;;;;5071738;28;19913;-54
2023/06/26 03:15:37;;;;;;;;;;;26.60;56.20;;;;;;5071709;28;19913;-54
2023/06/26 03:18:02;;;;;;;;;;;26.50;56.20;;;;;;5070371;28;20003;-53
2023/06/26 03:20:27;;;;;;;;;;;26.40;56.40;;;;;;5100129;28;20398;-53
2023/06/26 03:22:53;;;;;;;;;;;26.40;56.40;;;;;;5071364;28;20023;-54
2023/06/26 03:25:18;;;;;;;;;;;26.50;56.30;;;;;;5072432;28;19932;-53
2023/06/26 03:27:44;;;;;;;;;;;26.40;56.30;;;;;;5092141;28;20361;-53
2023/06/26 03:30:10;;;;;;;;;;;26.40;56.40;;;;;;5069471;28;19912;-54
2023/06/26 03:32:35;;;;;;;;;;;26.40;56.30;;;;;;5072140;28;19908;-53
2023/06/26 03:35:03;;;;;;;;;;;26.50;56.30;;;;;;5072075;28;19912;-53
2023/06/26 03:37:28;;;;;;;;;;;26.50;56.20;;;;;;5069692;28;19923;-53
2023/06/26 03:39:54;;;;;;;;;;;26.50;56.10;;;;;;5071574;28;19916;-53
2023/06/26 03:42:19;;;;;;;;;;;26.60;56.10;;;;;;5071159;28;19921;-53
2023/06/26 03:44:45;;;;;;;;;;;26.50;56.00;;;;;;5070902;28;19916;-53
2023/06/26 03:47:10;;;;;;;;;;;26.50;56.10;;;;;;5071233;28;19927;-53
2023/06/26 03:49:35;;;;;;;;;;;26.40;56.10;;;;;;5071605;28;19913;-53
2023/06/26 03:52:01;;;;;;;;;;;26.40;56.10;;;;;;5071359;28;19958;-53
2023/06/26 03:54:26;;;;;;;;;;;26.30;56.30;;;;;;5069805;28;19958;-53
2023/06/26 03:56:52;;;;;;;;;;;26.40;56.30;;;;;;5071203;28;19919;-54
2023/06/26 03:59:17;;;;;;;;;;;26.40;56.20;;;;;;5070447;28;20408;-53
2023/06/26 04:01:43;;;;;;;;;;;26.40;56.30;;;;;;5069717;28;19975;-54
2023/06/26 04:04:08;;;;;;;;;;;26.40;56.20;;;;;;5068373;28;19923;-54
2023/06/26 04:06:34;;;;;;;;;;;26.30;56.30;;;;;;5071507;28;19920;-54
2023/06/26 04:08:59;;;;;;;;;;;26.40;56.30;;;;;;5069597;28;20269;-53
2023/06/26 04:11:25;;;;;;;;;;;26.40;56.20;;;;;;5067570;28;19913;-54
2023/06/26 04:13:50;;;;;;;;;;;26.40;56.30;;;;;;5071367;28;19966;-53
2023/06/26 04:16:15;;;;;;;;;;;26.50;56.20;;;;;;5063879;28;19963;-53
2023/06/26 04:18:41;;;;;;;;;;;26.50;56.20;;;;;;5061580;28;20378;-54
2023/06/26 04:21:13;;;;;;;;;;;26.40;56.00;;;;;;5071239;28;19912;-54
2023/06/26 04:23:39;;;;;;;;;;;26.50;56.20;;;;;;5069412;28;19924;-53
2023/06/26 04:26:04;;;;;;;;;;;26.40;56.10;;;;;;5071706;28;20351;-53
2023/06/26 04:28:33;;;;;;;;;;;26.40;56.20;;;;;;5068846;28;20347;-54
2023/06/26 04:30:59;;;;;;;;;;;26.40;56.30;;;;;;5070086;28;20065;-53
2023/06/26 04:33:25;;;;;;;;;;;26.30;56.20;;;;;;5070218;28;20399;-53
2023/06/26 04:35:51;;;;;;;;;;;26.20;56.40;;;;;;5071810;28;19908;-53
2023/06/26 04:38:16;;;;;;;;;;;26.10;56.80;;;;;;5070534;28;19932;-53
2023/06/26 04:40:42;;;;;;;;;;;26.00;57.10;;;;;;5093256;28;20353;-53
2023/06/26 04:43:07;;;;;;;;;;;26.00;57.00;;;;;;5053142;28;19913;-54
2023/06/26 04:45:33;;;;;;;;;;;26.10;57.00;;;;;;5068260;28;20331;-53
2023/06/26 04:48:00;;;;;;;;;;;26.00;56.90;;;;;;5063736;28;20003;-53
2023/06/26 04:50:26;;;;;;;;;;;25.80;57.40;;;;;;5092305;28;19962;-53
2023/06/26 04:52:51;;;;;;;;;;;25.70;57.50;;;;;;5062224;28;19921;-53
2023/06/26 04:55:16;;;;;;;;;;;25.60;57.80;;;;;;5062369;28;19945;-54
2023/06/26 04:57:42;;;;;;;;;;;25.50;58.00;;;;;;5074907;28;19912;-53
2023/06/26 05:00:10;;;;;;;;;;;25.50;57.90;;;;;;5071732;28;20446;-53
2023/06/26 05:02:36;;;;;;;;;;;25.60;57.90;;;;;;5071043;28;19991;-53
2023/06/26 05:05:01;;;;;;;;;;;25.60;57.80;;;;;;5074302;28;20357;-53
2023/06/26 05:07:27;;;;;;;;;;;25.60;57.70;;;;;;5092754;28;19916;-54
2023/06/26 05:09:52;;;;;;;;;;;25.60;57.60;;;;;;5054644;28;19966;-54
2023/06/26 05:12:17;;;;;;;;;;;25.60;57.80;;;;;;5072363;28;19908;-53
2023/06/26 05:14:43;;;;;;;;;;;25.60;57.70;;;;;;5074614;28;19912;-54
2023/06/26 05:17:08;;;;;;;;;;;25.60;57.90;;;;;;5069391;28;19920;-54
2023/06/26 05:19:34;;;;;;;;;;;25.60;57.90;;;;;;5074761;28;20446;-54
2023/06/26 05:22:01;;;;;;;;;;;25.50;58.00;;;;;;5074079;28;19919;-53
2023/06/26 05:24:26;;;;;;;;;;;25.60;58.00;;;;;;5074114;28;19914;-54
2023/06/26 05:26:52;;;;;;;;;;;25.60;57.90;;;;;;5060419;28;21328;-53
2023/06/26 05:29:17;;;;;;;;;;;25.80;57.70;;;;;;5091348;28;20321;-55
2023/06/26 05:31:43;;;;;;;;;;;25.90;57.50;;;;;;5073367;28;19931;-54
2023/06/26 05:34:08;;;;;;;;;;;25.90;57.40;;;;;;5074037;28;19917;-53
2023/06/26 05:36:34;;;;;;;;;;;25.90;57.50;;;;;;5074564;28;19923;-54
2023/06/26 05:38:59;;;;;;;;;;;25.90;57.50;;;;;;5095160;28;19970;-53
2023/06/26 05:41:25;;;;;;;;;;;25.80;57.50;;;;;;5068461;28;20317;-53
2023/06/26 05:43:50;;;;;;;;;;;25.80;57.70;;;;;;5072083;28;19919;-53
2023/06/26 05:46:16;;;;;;;;;;;25.70;57.80;;;;;;5070900;28;19959;-54
2023/06/26 05:48:41;;;;;;;;;;;25.70;57.80;;;;;;5065593;28;19939;-54
2023/06/26 05:51:07;;;;;;;;;;;25.70;57.80;;;;;;5069068;28;20269;-53
2023/06/26 05:53:33;;;;;;;;;;;25.80;57.90;;;;;;5062093;28;19920;-54
2023/06/26 05:55:58;;;;;;;;;;;25.80;57.80;;;;;;5102612;28;20312;-53
2023/06/26 05:58:24;;;;;;;;;;;25.80;57.70;;;;;;5072422;28;19982;-54
2023/06/26 06:00:49;;;;;;;;;;;25.90;57.70;;;;;;5097509;28;20016;-53
2023/06/26 06:03:15;;;;;;;;;;;26.00;57.50;;;;;;5071050;28;19923;-53
2023/06/26 06:05:40;;;;;;;;;;;26.10;57.40;;;;;;5063943;28;19970;-54
2023/06/26 06:08:05;;;;;;;;;;;26.10;57.30;;;;;;5075081;28;20377;-53
2023/06/26 06:10:31;;;;;;;;;;;26.10;57.20;;;;;;5067815;28;19912;-52
2023/06/26 06:12:56;;;;;;;;;;;26.20;57.30;;;;;;5073423;28;20085;-53
2023/06/26 06:15:22;;;;;;;;;;;26.10;57.40;;;;;;5073719;28;19915;-53
2023/06/26 06:17:47;;;;;;;;;;;26.10;57.20;;;;;;5073529;28;19912;-53
2023/06/26 06:20:13;;;;;;;;;;;26.10;57.20;;;;;;5073255;28;20414;-53
2023/06/26 06:22:38;;;;;;;;;;;26.10;57.30;;;;;;5058387;28;20293;-53
2023/06/26 06:25:04;;;;;;;;;;;26.10;57.40;;;;;;5073420;28;19920;-53
2023/06/26 06:27:30;;;;;;;;;;;26.00;57.50;;;;;;5070197;28;19942;-53
2023/06/26 06:29:56;;;;;;;;;;;26.00;57.60;;;;;;5082036;28;19991;-54
2023/06/26 06:32:21;;;;;;;;;;;26.00;57.70;;;;;;5067443;28;19995;-53
2023/06/26 06:34:47;;;;;;;;;;;26.00;57.90;;;;;;5071871;28;19958;-54
2023/06/26 06:37:12;;;;;;;;;;;26.00;57.80;;;;;;5072294;28;20007;-54
2023/06/26 06:39:38;;;;;;;;;;;26.00;57.80;;;;;;5053433;28;19928;-54
2023/06/26 06:42:03;;;;;;;;;;;26.00;57.90;;;;;;5065179;28;19912;-54
2023/06/26 06:44:30;;;;;;;;;;;26.00;57.80;;;;;;5054196;28;19956;-54
2023/06/26 06:46:56;;;;;;;;;;;26.10;57.90;;;;;;5071153;28;20360;-54
2023/06/26 06:49:21;;;;;;;;;;;26.10;57.80;;;;;;5073144;28;19920;-55
2023/06/26 06:51:46;;;;;;;;;;;26.10;57.80;;;;;;5061983;28;19969;-55
2023/06/26 06:54:12;;;;;;;;;;;26.20;57.90;;;;;;5060323;28;20003;-54
2023/06/26 06:56:37;;;;;;;;;;;26.20;57.90;;;;;;5065264;28;20331;-54
2023/06/26 06:59:03;;;;;;;;;;;26.20;57.80;;;;;;5063487;28;19920;-55
2023/06/26 07:01:28;;;;;;;;;;;26.20;57.80;;;;;;5062842;28;20373;-55
2023/06/26 07:03:54;;;;;;;;;;;26.20;57.80;;;;;;5069525;28;19970;-55
2023/06/26 07:06:19;;;;;;;;;;;26.20;57.70;;;;;;5059372;28;19921;-54
2023/06/26 07:08:45;;;;;;;;;;;26.30;57.70;;;;;;5068908;28;19917;-55
2023/06/26 07:11:10;;;;;;;;;;;26.30;57.70;;;;;;5060840;28;19917;-54
2023/06/26 07:13:36;;;;;;;;;;;26.30;57.50;;;;;;5066697;28;20379;-54
2023/06/26 07:16:02;;;;;;;;;;;26.30;57.60;;;;;;5063227;28;19968;-55
2023/06/26 07:18:27;;;;;;;;;;;26.30;57.80;;;;;;5061912;28;20377;-54
2023/06/26 07:20:52;;;;;;;;;;;26.30;57.70;;;;;;5084343;28;19917;-53
2023/06/26 07:23:18;;;;;;;;;;;26.30;57.80;;;;;;5082204;28;19913;-54
2023/06/26 07:25:44;;;;;;;;;;;26.30;57.90;;;;;;5058737;28;20012;-54
2023/06/26 07:28:10;;;;;;;;;;;26.30;57.90;;;;;;5060674;28;19967;-54
2023/06/26 07:30:35;;;;;;;;;;;26.40;57.70;;;;;;5058172;28;19916;-53
2023/06/26 07:33:00;;;;;;;;;;;26.40;57.50;;;;;;5062868;28;19912;-54
2023/06/26 07:35:27;;;;;;;;;;;26.50;57.50;;;;;;5059630;28;19920;-54
2023/06/26 07:37:52;;;;;;;;;;;26.50;57.60;;;;;;5058927;28;19916;-54
2023/06/26 07:40:18;;;;;;;;;;;26.50;57.70;;;;;;5055284;28;19913;-55
2023/06/26 07:42:43;;;;;;;;;;;26.50;57.70;;;;;;5063958;28;20007;-54
2023/06/26 07:45:11;;;;;;;;;;;26.60;57.70;;;;;;5059910;28;19931;-53
2023/06/26 07:47:37;;;;;;;;;;;26.60;57.90;;;;;;5051781;28;19924;-54
2023/06/26 07:50:03;;;;;;;;;;;26.60;57.70;;;;;;5050674;28;19928;-54
2023/06/26 07:52:30;;;;;;;;;;;26.60;57.70;;;;;;5061340;28;20050;-54
2023/06/26 07:54:55;;;;;;;;;;;26.70;57.80;;;;;;5063687;28;20187;-54
2023/06/26 07:57:21;;;;;;;;;;;26.80;57.70;;;;;;5070382;28;19912;-54
2023/06/26 07:59:46;;;;;;;;;;;26.90;57.50;;;;;;5063505;28;19914;-54
2023/06/26 08:02:12;;;;;;;;;;;26.90;57.60;;;;;;5063410;28;19913;-54
2023/06/26 08:04:37;;;;;;;;;;;26.90;57.50;;;;;;5060022;28;20233;-54
2023/06/26 08:07:06;;;;;;;;;;;26.90;57.60;;;;;;5061974;28;20236;-55
2023/06/26 08:09:32;;;;;;;;;;;26.90;57.90;;;;;;5062966;28;19959;-54
2023/06/26 08:11:57;;;;;;;;;;;26.90;57.70;;;;;;5060499;28;19917;-55
2023/06/26 08:14:23;;;;;;;;;;;27.00;57.80;;;;;;5070553;28;20388;-54
2023/06/26 08:16:48;;;;;;;;;;;27.00;57.70;;;;;;5052536;28;19975;-54
2023/06/26 08:19:14;;;;;;;;;;;27.00;57.70;;;;;;5053973;28;19967;-53
2023/06/26 08:21:43;;;;;;;;;;;27.00;57.80;;;;;;5059507;28;19944;-53
2023/06/26 08:24:08;;;;;;;;;;;27.00;57.70;;;;;;5067196;28;19919;-53
2023/06/26 08:26:34;;;;;;;;;;;27.10;57.50;;;;;;5062001;28;19913;-53
2023/06/26 08:28:59;;;;;;;;;;;27.20;57.20;;;;;;5069147;28;19982;-54
2023/06/26 08:31:25;;;;;;;;;;;27.20;56.90;;;;;;5070492;28;20384;-54
2023/06/26 08:33:50;;;;;;;;;;;27.30;56.70;;;;;;5065861;28;19912;-53
2023/06/26 08:36:16;;;;;;;;;;;27.30;56.20;;;;;;5066285;28;19913;-54
2023/06/26 08:38:41;;;;;;;;;;;27.40;55.80;;;;;;5068873;28;19921;-53
2023/06/26 08:41:07;;;;;;;;;;;27.40;55.40;;;;;;5059928;28;19920;-53
2023/06/26 08:43:33;;;;;;;;;;;27.40;55.20;;;;;;5071268;28;20428;-54
2023/06/26 08:45:59;;;;;;;;;;;27.40;55.20;;;;;;5064972;28;19921;-54
2023/06/26 08:48:24;;;;;;;;;;;27.30;54.60;;;;;;5083247;28;20025;-54
2023/06/26 08:50:49;;;;;;;;;;;27.30;54.10;;;;;;5061359;28;19929;-55
2023/06/26 08:53:34;;;;;;;;;;;27.30;54.10;;;;;;5057877;28;19965;-53
2023/06/26 08:55:59;;;;;;;;;;;27.30;53.90;;;;;;5063731;28;20340;-54
2023/06/26 08:58:25;;;;;;;;;;;27.30;54.00;;;;;;5065203;28;20019;-54
2023/06/26 09:00:50;;;;;;;;;;;27.40;54.00;;;;;;5065897;28;19952;-55
2023/06/26 09:03:16;;;;;;;;;;;27.40;53.80;;;;;;5066644;28;19920;-53
2023/06/26 09:05:41;;;;;;;;;;;27.40;53.70;;;;;;5065899;28;19920;-54
2023/06/26 09:08:07;;;;;;;;;;;27.40;53.80;;;;;;5053730;28;19912;-53
2023/06/26 09:10:32;;;;;;;;;;;27.40;53.80;;;;;;5058592;28;20008;-54
2023/06/26 09:12:58;;;;;;;;;;;27.40;54.10;;;;;;5071514;28;19912;-55
2023/06/26 09:15:23;;;;;;;;;;;27.40;54.40;;;;;;5072202;28;20373;-54
2023/06/26 09:17:49;;;;;;;;;;;27.40;54.60;;;;;;5060298;28;20102;-54
2023/06/26 09:20:15;;;;;;;;;;;27.40;54.80;;;;;;5089474;27;20055;-54
2023/06/26 09:22:43;;;;;;;;;;;27.40;54.90;;;;;;5059298;28;20054;-55
2023/06/26 09:25:09;;;;;;;;;;;27.50;55.10;;;;;;5097877;28;19924;-54
2023/06/26 09:27:35;;;;;;;;;;;27.60;55.20;;;;;;5062057;28;19920;-54
2023/06/26 09:30:03;;;;;;;;;;;27.60;55.20;;;;;;5056738;28;21240;-54
2023/06/26 09:32:29;;;;;;;;;;;27.60;55.40;;;;;;5065236;28;19955;-55
2023/06/26 09:35:00;;;;;;;;;;;27.60;55.40;;;;;;5066954;28;19964;-55
2023/06/26 09:37:25;;;;;;;;;;;27.50;55.50;;;;;;5062717;28;20434;-54
2023/06/26 09:39:51;;;;;;;;;;;27.50;55.50;;;;;;5050696;28;19913;-54
2023/06/26 09:42:17;;;;;;;;;;;27.50;55.50;;;;;;5056126;28;19913;-55
2023/06/26 09:44:45;;;;;;;;;;;27.50;55.60;;;;;;5091701;28;19917;-54
2023/06/26 09:47:11;;;;;;;;;;;27.50;55.70;;;;;;5066220;28;19927;-54
2023/06/26 09:49:36;;;;;;;;;;;27.60;55.60;;;;;;5063300;28;19908;-54
2023/06/26 09:52:02;;;;;;;;;;;27.60;55.50;;;;;;5069495;28;20555;-54
2023/06/26 09:54:30;;;;;;;;;;;27.60;55.50;;;;;;5070460;28;19947;-53
2023/06/26 09:56:56;;;;;;;;;;;27.60;55.50;;;;;;5066902;28;20001;-53
2023/06/26 09:59:21;;;;;;;;;;;27.60;55.50;;;;;;5063507;28;19974;-54
2023/06/26 10:01:47;;;;;;;;;;;27.60;55.50;;;;;;5063468;28;19913;-54
2023/06/26 10:04:12;;;;;;;;;;;27.50;55.40;;;;;;5060857;28;19936;-54
2023/06/26 10:06:42;;;;;;;;;;;27.60;55.50;;;;;;5067107;28;20308;-54
2023/06/26 10:09:07;;;;;;;;;;;27.50;55.40;;;;;;5072722;28;19935;-54
2023/06/26 10:11:46;;;;;;;;;;;27.60;55.50;;;;;;5062580;28;19949;-54
2023/06/26 10:14:12;;;;;;;;;;;27.50;55.50;;;;;;5070128;28;19912;-54
2023/06/26 10:16:37;;;;;;;;;;;27.60;55.80;;;;;;5063903;28;19912;-54
2023/06/26 10:19:05;;;;;;;;;;;27.60;56.10;;;;;;5066379;28;20006;-54
2023/06/26 10:21:30;;;;;;;;;;;27.50;56.30;;;;;;5091984;28;19920;-54
2023/06/26 10:23:56;;;;;;;;;;;27.40;56.60;;;;;;5060179;28;20320;-54
2023/06/26 10:26:22;;;;;;;;;;;27.50;57.00;;;;;;5085654;27;20016;-55
2023/06/26 10:28:49;;;;;;;;;;;27.40;57.30;;;;;;5053916;28;19958;-55
2023/06/26 10:31:15;;;;;;;;;;;27.40;58.60;;;;;;5063757;28;20317;-55
2023/06/26 10:33:40;;;;;;;;;;;27.40;58.30;;;;;;5065434;28;19923;-55
2023/06/26 10:36:13;;;;;;;;;;;27.40;58.40;;;;;;5057825;28;19974;-55
2023/06/26 10:38:58;;;;;;;;;;;27.40;58.40;;;;;;5064832;28;19921;-55
2023/06/26 10:41:23;;;;;;;;;;;27.50;58.90;;;;;;5055441;28;20395;-55
2023/06/26 10:43:49;;;;;;;;;;;27.50;59.40;;;;;;5066029;28;19921;-56
2023/06/26 10:46:15;;;;;;;;;;;27.50;59.10;;;;;;5055652;28;20385;-55
2023/06/26 10:49:03;;;;;;;;;;;27.50;59.30;;;;;;5054810;28;19913;-54
2023/06/26 10:51:28;;;;;;;;;;;27.50;59.40;;;;;;5059847;28;19913;-55
2023/06/26 10:53:54;;;;;;;;;;;27.60;59.80;;;;;;5063116;28;19913;-55
2023/06/26 10:56:19;;;;;;;;;;;27.60;59.80;;;;;;5054327;28;20434;-55
2023/06/26 10:58:47;;;;;;;;;;;27.60;59.50;;;;;;5069275;28;19943;-55
2023/06/26 11:01:15;;;;;;;;;;;27.60;59.80;;;;;;5057985;28;19917;-55
2023/06/26 11:03:44;;;;;;;;;;;27.60;60.20;;;;;;5058124;28;19912;-55
2023/06/26 11:06:10;;;;;;;;;;;27.50;60.20;;;;;;5073848;28;20346;-54
2023/06/26 11:08:46;;;;;;;;;;;27.60;60.70;;;;;;5059664;28;20380;-54
2023/06/26 11:11:12;;;;;;;;;;;27.60;60.40;;;;;;5067030;28;19959;-55
2023/06/26 11:13:37;;;;;;;;;;;27.60;60.50;;;;;;5064929;28;19970;-55
2023/06/26 11:16:02;;;;;;;;;;;27.60;60.60;;;;;;5060883;28;19970;-55
2023/06/26 11:18:28;;;;;;;;;;;27.60;60.00;;;;;;5098172;28;19921;-55
2023/06/26 11:20:53;;;;;;;;;;;27.60;59.80;;;;;;5071408;28;19909;-55
2023/06/26 11:23:21;;;;;;;;;;;27.60;60.00;;;;;;5054087;28;19952;-55
2023/06/26 11:25:47;;;;;;;;;;;27.60;59.80;;;;;;5058736;28;19924;-54
2023/06/26 11:28:12;;;;;;;;;;;27.60;59.80;;;;;;5056919;28;20147;-55
2023/06/26 11:30:39;;;;;;;;;;;27.70;59.90;;;;;;5060073;28;20000;-55
2023/06/26 11:33:08;;;;;;;;;;;27.70;59.60;;;;;;5062483;28;19952;-56
2023/06/26 11:35:33;;;;;;;;;;;27.70;59.60;;;;;;5053557;28;19909;-55
2023/06/26 11:38:04;;;;;;;;;;;27.60;59.30;;;;;;5070710;28;19920;-55
2023/06/26 11:40:31;;;;;;;;;;;27.60;58.90;;;;;;5070325;28;19936;-55
2023/06/26 11:43:03;;;;;;;;;;;27.60;58.90;;;;;;5050254;28;19920;-55
2023/06/26 11:45:29;;;;;;;;;;;27.60;58.50;;;;;;5050987;28;20369;-55
2023/06/26 11:47:56;;;;;;;;;;;27.60;58.30;;;;;;5067677;28;19916;-55
2023/06/26 11:50:21;;;;;;;;;;;27.60;58.00;;;;;;5072083;28;20344;-55
2023/06/26 11:52:52;;;;;;;;;;;27.60;57.50;;;;;;5061914;28;19951;-55
2023/06/26 11:55:17;;;;;;;;;;;27.50;57.20;;;;;;5070914;28;19908;-55
2023/06/26 11:57:47;;;;;;;;;;;27.50;57.10;;;;;;5068406;28;20432;-55
2023/06/26 12:00:16;;;;;;;;;;;27.50;57.00;;;;;;5063609;28;19913;-54
2023/06/26 12:02:42;;;;;;;;;;;27.60;56.60;;;;;;5065142;28;20468;-55
2023/06/26 12:05:08;;;;;;;;;;;27.60;56.40;;;;;;5069569;28;20042;-55
2023/06/26 12:07:34;;;;;;;;;;;27.60;56.30;;;;;;5101287;28;20468;-55
2023/06/26 12:10:00;;;;;;;;;;;27.60;56.10;;;;;;5072610;28;20457;-55
2023/06/26 12:12:25;;;;;;;;;;;27.60;55.80;;;;;;5074913;28;19908;-55
2023/06/26 12:14:51;;;;;;;;;;;27.60;55.80;;;;;;5069023;28;20293;-56
2023/06/26 12:17:17;;;;;;;;;;;27.60;55.50;;;;;;5097136;28;20253;-55
2023/06/26 12:19:43;;;;;;;;;;;27.60;55.20;;;;;;5063692;28;19916;-55
2023/06/26 12:22:09;;;;;;;;;;;27.60;55.00;;;;;;5072101;28;19912;-55
2023/06/26 12:24:38;;;;;;;;;;;27.50;54.70;;;;;;5072479;28;20490;-55
2023/06/26 12:27:07;;;;;;;;;;;27.40;55.10;;;;;;5067639;28;19917;-55
2023/06/26 12:29:33;;;;;;;;;;;27.40;54.90;;;;;;5073518;28;19913;-54
2023/06/26 12:31:58;;;;;;;;;;;27.30;54.80;;;;;;5056663;28;20024;-54
2023/06/26 12:34:26;;;;;;;;;;;27.30;54.80;;;;;;5073998;28;19919;-53
2023/06/26 12:36:51;;;;;;;;;;;27.20;54.70;;;;;;5055379;28;19913;-55
2023/06/26 12:39:17;;;;;;;;;;;27.20;54.50;;;;;;5067515;28;19958;-55
2023/06/26 12:41:47;;;;;;;;;;;27.20;54.50;;;;;;5060183;28;20065;-54
2023/06/26 12:44:16;;;;;;;;;;;27.30;53.90;;;;;;5066736;28;19970;-54
2023/06/26 12:46:41;;;;;;;;;;;27.20;53.50;;;;;;5066512;28;19920;-55
2023/06/26 12:49:07;;;;;;;;;;;27.20;52.50;;;;;;5059228;28;19913;-55
2023/06/26 12:51:32;;;;;;;;;;;27.20;52.80;;;;;;5071350;28;19919;-55
2023/06/26 12:53:58;;;;;;;;;;;27.20;52.40;;;;;;5059273;28;19958;-56
2023/06/26 12:56:23;;;;;;;;;;;27.20;52.70;;;;;;5052319;28;19943;-55
2023/06/26 12:58:48;;;;;;;;;;;27.10;51.50;;;;;;5060065;28;19919;-55
2023/06/26 13:01:14;;;;;;;;;;;27.20;50.90;;;;;;5059661;28;19921;-55
2023/06/26 13:03:42;;;;;;;;;;;27.10;50.80;;;;;;5088987;28;19921;-55
2023/06/26 13:06:08;;;;;;;;;;;27.00;50.60;;;;;;5075386;28;19922;-55
2023/06/26 13:08:33;;;;;;;;;;;27.10;50.30;;;;;;5071599;28;19916;-55
2023/06/26 13:10:59;;;;;;;;;;;27.00;49.90;;;;;;5065111;28;19937;-55
2023/06/26 13:13:24;;;;;;;;;;;27.00;50.00;;;;;;5054560;28;19921;-55
2023/06/26 13:15:50;;;;;;;;;;;27.10;50.80;;;;;;5072027;28;19923;-56
2023/06/26 13:18:15;;;;;;;;;;;27.10;49.90;;;;;;5067522;28;20023;-55
2023/06/26 13:20:41;;;;;;;;;;;27.10;49.70;;;;;;5058855;28;19965;-55
2023/06/26 13:23:07;;;;;;;;;;;27.10;49.70;;;;;;5071404;28;20035;-55
2023/06/26 13:25:32;;;;;;;;;;;27.10;49.60;;;;;;5056823;28;20651;-55
2023/06/26 13:27:58;;;;;;;;;;;27.10;49.50;;;;;;5058844;28;19912;-55
2023/06/26 13:30:24;;;;;;;;;;;27.10;49.60;;;;;;5057370;28;20396;-55
2023/06/26 13:32:49;;;;;;;;;;;27.20;49.60;;;;;;5077908;28;19956;-55
2023/06/26 13:35:15;;;;;;;;;;;27.30;49.70;;;;;;5063126;28;20006;-55
2023/06/26 13:37:40;;;;;;;;;;;27.40;49.30;;;;;;5052811;28;19916;-55
2023/06/26 13:40:07;;;;;;;;;;;27.60;49.00;;;;;;5054491;28;20365;-55
2023/06/26 13:42:32;;;;;;;;;;;27.60;49.10;;;;;;5064278;28;19917;-54
2023/06/26 13:44:58;;;;;;;;;;;27.70;49.00;;;;;;5063099;28;19936;-56
2023/06/26 13:47:23;;;;;;;;;;;27.70;49.00;;;;;;5054579;28;20111;-55
2023/06/26 13:49:48;;;;;;;;;;;27.70;48.70;;;;;;5056024;28;19966;-55
2023/06/26 13:52:14;;;;;;;;;;;27.70;48.50;;;;;;5069860;28;19916;-55
2023/06/26 13:54:40;;;;;;;;;;;27.80;48.00;;;;;;5054378;28;20404;-55
2023/06/26 13:57:06;;;;;;;;;;;27.80;48.20;;;;;;5053352;28;19924;-55
2023/06/26 13:59:31;;;;;;;;;;;27.80;47.70;;;;;;5056394;28;20030;-56
2023/06/26 14:01:57;;;;;;;;;;;27.80;47.70;;;;;;5070148;28;19912;-55
2023/06/26 14:04:22;;;;;;;;;;;27.80;47.70;;;;;;5072496;28;20015;-55
2023/06/26 14:06:48;;;;;;;;;;;27.80;48.00;;;;;;5072860;28;19917;-55
2023/06/26 14:09:13;;;;;;;;;;;27.80;47.40;;;;;;5074323;28;20392;-55
2023/06/26 14:11:39;;;;;;;;;;;27.80;47.60;;;;;;5064696;28;19913;-55